Time;durP1;ratioP1;P1;durP2;ratioP2;P2;SDS_P1;SDS_P2;PMS_P1;PMS_P2;Temp;Humidity;BMP_temperature;BMP_pressure;BME280_temperature;BME280_humidity;BME280_pressure;Samples;Min_cycle;Max_cycle;Signal;HPM_P1;HPM_P2
2022/06/18 00:02:09;;;;;;;1.63;1.50;;;20.00;54.50;;;;;;5032778;28;20293;-71
2022/06/18 00:04:35;;;;;;;3.63;1.90;;;20.00;54.90;;;;;;5015414;28;20025;-70
2022/06/18 00:07:07;;;;;;;4.40;2.10;;;19.90;55.30;;;;;;5040806;28;20269;-71
2022/06/18 00:09:41;;;;;;;5.00;1.80;;;19.90;55.70;;;;;;5034857;28;20028;-70
2022/06/18 00:15:14;;;;;;;4.05;2.05;;;19.70;56.50;;;;;;5023359;28;20086;-70
2022/06/18 00:17:40;;;;;;;2.60;1.58;;;19.50;56.80;;;;;;5034789;28;20036;-71
2022/06/18 00:20:06;;;;;;;1.75;1.25;;;19.40;56.80;;;;;;5043927;28;20036;-69
2022/06/18 00:22:32;;;;;;;2.58;1.50;;;19.40;57.10;;;;;;5031526;28;20021;-69
2022/06/18 00:25:00;;;;;;;3.35;1.33;;;19.30;57.60;;;;;;5041274;28;20456;-71
2022/06/18 00:27:26;;;;;;;3.00;1.60;;;19.30;57.80;;;;;;5037415;28;20552;-71
2022/06/18 00:29:52;;;;;;;3.65;2.00;;;19.20;58.00;;;;;;5033928;28;20034;-70
2022/06/18 00:32:18;;;;;;;2.67;1.25;;;19.10;58.60;;;;;;5044246;28;20363;-70
2022/06/18 00:34:44;;;;;;;2.67;1.75;;;19.00;59.20;;;;;;5031382;28;20096;-71
2022/06/18 00:37:17;;;;;;;4.68;1.48;;;18.90;59.30;;;;;;5038680;28;20033;-71
2022/06/18 00:39:43;;;;;;;2.25;1.55;;;18.80;59.30;;;;;;5041517;28;20108;-72
2022/06/18 00:42:25;;;;;;;2.90;1.90;;;18.70;59.20;;;;;;5034374;28;20063;-71
2022/06/18 00:44:54;;;;;;;4.38;1.60;;;18.60;59.70;;;;;;5020969;28;20074;-72
2022/06/18 00:47:39;;;;;;;2.85;1.85;;;18.50;59.90;;;;;;5038669;28;20018;-71
2022/06/18 00:50:20;;;;;;;3.95;2.17;;;18.50;60.30;;;;;;5044007;28;20037;-73
2022/06/18 00:53:12;;;;;;;4.35;2.70;;;18.40;60.90;;;;;;5020006;28;20017;-71
2022/06/18 00:55:46;;;;;;;3.17;1.90;;;18.30;61.60;;;;;;5036571;28;20072;-71
2022/06/18 00:58:15;;;;;;;2.22;1.85;;;18.20;61.40;;;;;;5043238;28;20111;-70
2022/06/18 01:00:46;;;;;;;3.65;1.70;;;18.10;61.70;;;;;;5033037;28;20036;-71
2022/06/18 01:03:22;;;;;;;;;;;18.10;61.60;;;;;;5042295;28;20033;-72
2022/06/18 01:05:48;;;;;;;3.38;1.50;;;18.10;61.20;;;;;;5044279;28;19909;-72
2022/06/18 01:08:17;;;;;;;4.10;1.98;;;18.10;61.20;;;;;;5033271;28;20074;-69
2022/06/18 01:10:53;;;;;;;2.53;2.13;;;18.10;61.40;;;;;;5040955;28;20032;-69
2022/06/18 01:13:23;;;;;;;3.33;1.85;;;18.10;61.70;;;;;;5023107;28;20415;-70
2022/06/18 01:15:52;;;;;;;1.85;1.40;;;18.20;61.60;;;;;;5044089;28;20029;-71
2022/06/18 01:18:18;;;;;;;3.33;1.63;;;18.10;61.80;;;;;;5033094;28;20026;-71
2022/06/18 01:21:15;;;;;;;2.22;1.50;;;18.00;62.00;;;;;;5045951;28;20022;-71
2022/06/18 01:23:47;;;;;;;2.40;1.50;;;17.90;62.30;;;;;;5042727;28;20455;-71
2022/06/18 01:26:13;;;;;;;2.63;1.00;;;17.90;62.60;;;;;;5034077;28;20483;-71
2022/06/18 01:28:39;;;;;;;2.88;1.75;;;17.80;62.60;;;;;;5045571;28;20026;-71
2022/06/18 01:31:06;;;;;;;3.63;1.40;;;17.90;62.40;;;;;;5038047;28;20025;-71
2022/06/18 01:33:33;;;;;;;5.30;1.55;;;17.90;62.00;;;;;;5039105;28;20060;-71
2022/06/18 01:36:01;;;;;;;2.08;1.60;;;17.90;62.20;;;;;;5045339;28;20029;-70
2022/06/18 01:38:27;;;;;;;4.40;1.65;;;17.90;62.30;;;;;;5015120;28;20025;-71
2022/06/18 01:43:54;;;;;;;1.85;1.33;;;17.90;62.50;;;;;;5044127;28;20510;-70
2022/06/18 01:46:19;;;;;;;2.83;1.65;;;17.90;62.50;;;;;;5015960;28;20029;-73
2022/06/18 01:48:48;;;;;;;3.78;1.50;;;17.90;62.40;;;;;;5044671;28;20177;-72
2022/06/18 01:51:29;;;;;;;3.97;1.73;;;17.90;62.50;;;;;;5039463;28;20020;-72
2022/06/18 01:54:32;;;;;;;5.15;1.70;;;17.70;63.30;;;;;;5035989;28;20034;-71
2022/06/18 01:57:09;;;;;;;2.58;1.70;;;17.70;63.60;;;;;;5023193;28;20050;-70
2022/06/18 01:59:39;;;;;;;3.38;1.88;;;17.80;63.70;;;;;;5038175;28;20094;-73
2022/06/18 02:02:05;;;;;;;2.22;1.80;;;17.70;63.80;;;;;;5046349;28;20029;-73
2022/06/18 02:04:33;;;;;;;3.20;1.95;;;17.70;63.60;;;;;;5033994;28;20521;-73
2022/06/18 02:06:59;;;;;;;3.30;1.85;;;17.70;63.80;;;;;;5043086;28;20026;-71
2022/06/18 02:09:31;;;;;;;4.22;1.85;;;17.60;63.60;;;;;;5036461;28;20030;-73
2022/06/18 02:12:00;;;;;;;2.35;1.90;;;17.60;63.80;;;;;;5044436;28;20098;-72
2022/06/18 02:14:30;;;;;;;2.70;1.90;;;17.50;63.90;;;;;;5033399;28;20021;-70
2022/06/18 02:16:57;;;;;;;2.22;1.50;;;17.50;64.70;;;;;;5043389;28;20100;-72
2022/06/18 02:19:23;;;;;;;4.35;2.10;;;17.50;64.70;;;;;;5039089;28;20447;-72
2022/06/18 02:21:52;;;;;;;4.22;1.63;;;17.50;64.80;;;;;;5035979;28;20032;-72
2022/06/18 02:24:19;;;;;;;7.47;1.83;;;17.50;64.70;;;;;;5046003;28;20025;-72
2022/06/18 02:26:47;;;;;;;3.97;1.90;;;17.50;65.10;;;;;;5034657;28;20108;-72
2022/06/18 02:29:20;;;;;;;3.88;1.52;;;17.50;64.90;;;;;;5040247;28;20518;-72
2022/06/18 02:31:45;;;;;;;1.65;1.55;;;17.50;65.00;;;;;;5042828;28;20032;-71
2022/06/18 02:34:16;;;;;;;4.20;1.80;;;17.40;65.30;;;;;;5033022;28;20405;-72
2022/06/18 02:36:42;;;;;;;4.40;1.83;;;17.30;65.20;;;;;;5045744;28;20052;-71
2022/06/18 02:39:07;;;;;;;3.58;1.60;;;17.20;65.60;;;;;;5019675;28;20052;-72
2022/06/18 02:41:38;;;;;;;4.47;2.08;;;17.20;65.70;;;;;;5038605;28;20524;-71
2022/06/18 02:44:04;;;;;;;4.95;1.85;;;17.10;65.80;;;;;;5027927;28;20474;-73
2022/06/18 02:46:30;;;;;;;2.85;1.90;;;17.00;65.80;;;;;;5032841;28;20037;-73
2022/06/18 02:49:00;;;;;;;7.15;2.05;;;17.00;66.20;;;;;;5024204;28;20022;-72
2022/06/18 02:51:26;;;;;;;1.98;1.70;;;17.00;66.20;;;;;;5039662;28;20390;-72
2022/06/18 02:53:52;;;;;;;6.40;1.83;;;16.90;66.00;;;;;;5035399;28;20037;-72
2022/06/18 02:56:17;;;;;;;3.63;1.85;;;16.90;65.50;;;;;;5045735;28;20036;-72
2022/06/18 02:58:46;;;;;;;6.07;2.00;;;16.90;65.90;;;;;;5033142;28;20032;-72
2022/06/18 03:01:18;;;;;;;5.53;1.55;;;17.00;65.30;;;;;;5040626;28;20105;-72
2022/06/18 03:03:48;;;;;;;3.97;1.52;;;17.00;65.30;;;;;;5042033;28;20386;-72
2022/06/18 03:06:15;;;;;;;3.42;1.85;;;17.10;64.90;;;;;;5032302;28;20217;-72
2022/06/18 03:08:44;;;;;;;2.05;1.48;;;17.20;64.40;;;;;;5044045;28;20711;-72
2022/06/18 03:13:54;;;;;;;1.83;1.25;;;17.30;63.80;;;;;;5034783;28;20083;-71
2022/06/18 03:16:22;;;;;;;2.97;1.83;;;17.30;63.60;;;;;;5045529;28;20033;-72
2022/06/18 03:18:50;;;;;;;3.88;1.70;;;17.40;63.40;;;;;;5033329;28;20443;-72
2022/06/18 03:21:30;;;;;;;4.20;1.33;;;17.50;63.10;;;;;;5039545;28;20492;-72
2022/06/18 03:23:56;;;;;;;2.97;1.50;;;17.50;62.70;;;;;;5042777;28;20505;-71
2022/06/18 03:26:22;;;;;;;2.65;1.52;;;17.60;62.30;;;;;;5031764;28;20033;-70
2022/06/18 03:28:47;;;;;;;5.97;1.40;;;17.70;61.90;;;;;;5042866;28;20022;-72
2022/06/18 03:31:13;;;;;;;2.05;1.10;;;17.90;61.80;;;;;;5037396;28;20025;-72
2022/06/18 03:33:41;;;;;;;3.08;1.50;;;18.10;61.50;;;;;;5036316;28;20180;-72
2022/06/18 03:36:09;;;;;;;2.30;1.35;;;18.60;59.70;;;;;;5044604;28;20437;-72
2022/06/18 03:38:34;;;;;;;2.17;1.30;;;18.80;59.20;;;;;;5031103;28;20036;-72
2022/06/18 03:41:00;;;;;;;2.30;1.52;;;19.00;58.60;;;;;;5041551;28;20045;-73
2022/06/18 03:43:27;;;;;;;2.13;1.60;;;19.40;58.10;;;;;;5038764;28;20029;-73
2022/06/18 03:45:57;;;;;;;2.53;1.33;;;20.10;55.60;;;;;;5034775;28;20421;-72
2022/06/18 03:48:42;;;;;;;2.65;1.20;;;20.90;53.00;;;;;;5044343;28;20013;-71
2022/06/18 03:51:09;;;;;;;3.55;1.48;;;;;;;;;;5036775;28;20490;-72
2022/06/18 03:53:35;;;;;;;4.70;1.20;;;;;;;;;;5036492;28;20021;-72
2022/06/18 03:56:01;;;;;;;3.78;1.55;;;;;;;;;;5043771;28;20035;-71
2022/06/18 03:58:28;;;;;;;2.55;1.05;;;;;;;;;;5031003;28;20104;-71
2022/06/18 04:00:54;;;;;;;2.78;1.33;;;;;;;;;;5041316;28;20025;-72
2022/06/18 04:03:20;;;;;;;2.85;1.45;;;;;;;;;;5037861;28;20036;-72
2022/06/18 04:05:46;;;;;;;3.90;1.33;;;;;;;;;;5034689;28;20049;-73
2022/06/18 04:08:13;;;;;;;2.25;0.98;;;26.80;37.70;;;;;;5043871;28;20445;-73
2022/06/18 04:10:39;;;;;;;2.25;1.02;;;26.60;36.70;;;;;;5018669;28;20026;-72
2022/06/18 04:13:04;;;;;;;1.35;0.88;;;26.10;37.60;;;;;;5035831;28;20158;-71
2022/06/18 04:15:30;;;;;;;4.03;1.30;;;26.20;38.10;;;;;;5037519;28;20117;-71
2022/06/18 04:17:56;;;;;;;3.33;1.23;;;;;;;;;;5041796;28;20025;-70
2022/06/18 04:20:24;;;;;;;3.78;1.38;;;;;;;;;;5031261;28;20482;-71
2022/06/18 04:22:50;;;;;;;5.75;1.48;;;;;;;;;;5044217;28;20065;-71
2022/06/18 04:25:17;;;;;;;2.55;1.30;;;;;;;;;;5038873;28;20414;-71
2022/06/18 04:27:43;;;;;;;2.45;1.48;;;;;;;;;;5039803;28;20032;-69
2022/06/18 04:30:09;;;;;;;3.13;1.42;;;;;;;;;;5051934;28;20384;-72
2022/06/18 04:32:37;;;;;;;6.28;1.27;;;;;;;;;;5014918;28;20028;-72
2022/06/18 04:35:04;;;;;;;4.60;1.83;;;;;;;;;;5055362;27;20072;-71
2022/06/18 04:37:30;;;;;;;4.18;1.48;;;;;;;;;;5063420;27;20158;-72
2022/06/18 04:39:56;;;;;;;3.22;1.20;;;;;;;;;;5059675;27;20410;-72
2022/06/18 04:42:22;;;;;;;1.75;1.05;;;;;;;;;;5047689;28;20035;-72
2022/06/18 04:44:49;;;;;;;4.88;1.38;;;;;;;;;;5034867;28;20021;-72
2022/06/18 04:47:15;;;;;;;3.03;0.93;;;;;;;;;;5040620;28;20078;-72
2022/06/18 04:49:41;;;;;;;28.58;14.45;;;;;;;;;;5050306;22;20034;-75
2022/06/18 04:52:06;;;;;;;4.68;1.67;;;28.90;32.60;;;;;;5046962;28;20387;-72
2022/06/18 04:54:32;;;;;;;5.88;1.25;;;28.40;33.50;;;;;;5034735;28;20092;-74
2022/06/18 04:56:58;;;;;;;1.40;1.02;;;28.40;33.70;;;;;;5043641;28;20091;-71
2022/06/18 04:59:26;;;;;;;17.23;5.00;;;28.60;33.20;;;;;;5040451;28;20028;-74
2022/06/18 05:02:01;;;;;;;3.50;1.50;;;28.50;34.10;;;;;;5037136;28;20017;-74
2022/06/18 05:04:26;;;;;;;3.88;1.10;;;29.30;32.80;;;;;;5047592;28;20017;-73
2022/06/18 05:06:52;;;;;;;2.58;1.23;;;29.00;33.10;;;;;;5036411;28;20375;-74
2022/06/18 05:09:19;;;;;;;2.20;1.45;;;28.70;34.00;;;;;;5038741;28;20142;-73
2022/06/18 05:11:45;;;;;;;2.65;1.63;;;28.30;34.70;;;;;;5025040;28;20029;-73
2022/06/18 05:14:10;;;;;;;1.92;1.13;;;28.50;34.50;;;;;;5047941;28;20052;-73
2022/06/18 05:16:36;;;;;;;2.88;1.13;;;28.80;34.10;;;;;;5036200;28;20017;-73
2022/06/18 05:19:01;;;;;;;4.28;1.60;;;29.90;33.10;;;;;;5077229;27;20072;-74
2022/06/18 05:21:27;;;;;;;3.72;1.55;;;30.20;32.30;;;;;;5025407;28;20033;-74
2022/06/18 05:23:53;;;;;;;4.10;1.27;;;30.80;31.50;;;;;;5037700;28;20523;-74
2022/06/18 05:26:19;;;;;;;5.03;1.30;;;30.70;31.30;;;;;;5047992;28;20504;-73
2022/06/18 05:28:44;;;;;;;4.25;1.65;;;30.80;31.50;;;;;;5035079;28;20462;-73
2022/06/18 05:31:13;;;;;;;3.95;1.60;;;;;;;;;;5042916;28;20116;-74
2022/06/18 05:33:38;;;;;;;2.00;1.15;;;31.90;30.10;;;;;;5043944;28;20063;-73
2022/06/18 05:36:08;;;;;;;3.58;1.00;;;32.10;29.80;;;;;;5035455;28;20049;-74
2022/06/18 05:38:34;;;;;;;2.15;1.02;;;31.90;30.00;;;;;;5047987;28;20044;-74
2022/06/18 05:40:59;;;;;;;2.10;1.08;;;32.00;30.00;;;;;;5039072;28;20021;-75
2022/06/18 05:43:25;;;;;;;1.42;0.82;;;32.40;29.50;;;;;;5025689;28;20506;-75
2022/06/18 05:45:53;;;;;;;1.50;1.20;;;33.10;28.60;;;;;;5032905;28;20025;-75
2022/06/18 05:48:18;;;;;;;4.03;1.13;;;33.80;27.90;;;;;;5050961;28;20021;-75
2022/06/18 05:50:45;;;;;;;0.90;0.77;;;34.10;27.40;;;;;;5042140;28;20717;-73
2022/06/18 05:53:10;;;;;;;3.25;1.55;;;34.80;26.90;;;;;;5030550;28;20030;-73
2022/06/18 05:55:36;;;;;;;3.40;1.23;;;36.20;25.00;;;;;;5030850;28;20439;-74
2022/06/18 05:58:02;;;;;;;3.22;1.67;;;35.80;25.00;;;;;;5038488;28;20029;-73
2022/06/18 06:00:31;;;;;;;1.65;0.93;;;34.70;26.50;;;;;;5051912;28;20516;-74
2022/06/18 06:02:57;;;;;;;5.82;1.30;;;;;;;;;;5043308;28;20037;-74
2022/06/18 06:05:24;;;;;;;1.55;0.80;;;34.30;27.00;;;;;;5041983;28;20394;-75
2022/06/18 06:07:50;;;;;;;2.08;1.48;;;34.00;27.80;;;;;;5043114;28;20459;-73
2022/06/18 06:13:16;;;;;;;1.92;1.50;;;34.50;26.60;;;;;;5038616;28;20040;-74
2022/06/18 06:15:42;;;;;;;4.65;1.42;;;;;;;;;;5036760;28;20479;-74
2022/06/18 06:18:11;;;;;;;1.70;1.10;;;;;;;;;;5043898;28;20036;-74
2022/06/18 06:20:38;;;;;;;3.03;1.00;;;;;;;;;;5017921;28;20017;-73
2022/06/18 06:23:04;;;;;;;2.78;0.70;;;;;;;;;;5042388;28;20099;-74
2022/06/18 06:25:30;;;;;;;2.78;0.80;;;;;;;;;;5039239;28;20040;-74
2022/06/18 06:27:55;;;;;;;1.08;0.60;;;39.70;18.80;;;;;;5032463;28;20406;-74
2022/06/18 06:30:21;;;;;;;1.05;0.52;;;40.80;17.80;;;;;;5044220;28;20036;-74
2022/06/18 06:32:47;;;;;;;1.38;0.68;;;40.90;17.20;;;;;;5032825;28;20419;-74
2022/06/18 06:35:13;;;;;;;1.20;0.63;;;41.90;16.50;;;;;;5037688;28;20040;-74
2022/06/18 06:37:39;;;;;;;3.38;0.77;;;42.90;16.00;;;;;;5039245;28;20100;-74
2022/06/18 06:40:06;;;;;;;3.85;0.88;;;43.60;14.90;;;;;;5014539;28;20061;-74
2022/06/18 06:42:47;;;;;;;1.42;0.70;;;43.50;15.00;;;;;;5045930;28;20075;-74
2022/06/18 06:45:19;;;;;;;2.53;0.63;;;43.90;15.30;;;;;;5037929;28;20167;-74
2022/06/18 06:47:45;;;;;;;8.70;0.93;;;43.20;14.60;;;;;;5017705;28;20018;-74
2022/06/18 06:50:13;;;;;;;4.85;0.75;;;42.80;14.90;;;;;;5045561;28;20176;-74
2022/06/18 06:52:39;;;;;;;3.08;0.73;;;42.50;15.60;;;;;;5015662;28;20025;-74
2022/06/18 06:57:56;;;;;;;1.52;0.60;;;42.00;16.00;;;;;;5042013;28;20040;-74
2022/06/18 07:00:22;;;;;;;1.65;0.75;;;42.10;15.40;;;;;;5032549;28;20017;-74
2022/06/18 07:02:50;;;;;;;3.42;1.20;;;41.80;15.90;;;;;;5043801;28;20481;-67
2022/06/18 07:05:15;;;;;;;3.13;1.00;;;41.80;16.10;;;;;;5037743;28;20116;-70
2022/06/18 07:07:41;;;;;;;6.18;1.20;;;41.80;16.70;;;;;;5035580;28;20499;-68
2022/06/18 07:10:10;;;;;;;2.45;1.20;;;42.70;16.90;;;;;;5035613;28;20029;-68
2022/06/18 07:12:36;;;;;;;2.63;1.23;;;43.10;17.80;;;;;;5016221;28;20013;-70
2022/06/18 07:15:03;;;;;;;4.13;0.50;;;42.90;15.90;;;;;;5041494;28;20029;-69
2022/06/18 07:17:29;;;;;;;1.85;0.90;;;43.20;15.80;;;;;;5038729;28;20057;-67
2022/06/18 07:19:54;;;;;;;3.47;1.20;;;43.50;16.70;;;;;;5033697;28;20396;-67
2022/06/18 07:22:20;;;;;;;3.40;1.05;;;43.40;16.50;;;;;;5043904;28;20032;-67
2022/06/18 07:24:46;;;;;;;2.65;1.00;;;43.30;15.50;;;;;;5032721;28;20029;-67
2022/06/18 07:27:11;;;;;;;1.25;0.68;;;43.20;16.00;;;;;;5038348;28;20033;-67
2022/06/18 07:29:38;;;;;;;4.05;0.93;;;43.40;15.70;;;;;;5039534;28;20028;-67
2022/06/18 07:32:17;;;;;;;3.70;0.85;;;43.20;14.80;;;;;;5031884;28;20075;-66
2022/06/18 07:34:44;;;;;;;3.00;0.63;;;42.90;16.80;;;;;;5016719;28;20017;-69
2022/06/18 07:37:10;;;;;;;2.30;0.70;;;43.20;15.10;;;;;;5038795;28;20029;-67
2022/06/18 07:39:36;;;;;;;2.30;0.82;;;43.70;16.30;;;;;;5039307;28;20021;-67
2022/06/18 07:42:03;;;;;;;0.68;0.50;;;43.90;15.50;;;;;;5031690;28;20424;-67
2022/06/18 07:44:31;;;;;;;4.22;0.90;;;44.10;14.90;;;;;;5043933;28;20036;-74
2022/06/18 07:46:58;;;;;;;1.80;0.80;;;43.60;15.50;;;;;;5033977;28;20029;-70
2022/06/18 07:49:25;;;;;;;5.00;0.80;;;42.50;16.70;;;;;;5036391;28;20140;-65
2022/06/18 07:51:51;;;;;;;4.35;0.98;;;;;;;;;;5041423;28;20021;-71
2022/06/18 07:54:18;;;;;;;4.30;1.23;;;;;;;;;;5030529;28;20089;-70
2022/06/18 07:56:44;;;;;;;2.35;0.60;;;;;;;;;;5025716;28;20109;-69
2022/06/18 07:59:10;;;;;;;7.40;1.00;;;41.70;15.50;;;;;;5018204;28;20029;-69
2022/06/18 08:01:37;;;;;;;5.78;1.35;;;41.80;15.90;;;;;;5036404;28;20412;-69
2022/06/18 08:04:02;;;;;;;5.32;1.52;;;42.00;15.80;;;;;;5044199;28;20021;-69
2022/06/18 08:06:29;;;;;;;2.63;0.70;;;42.40;15.70;;;;;;5013842;28;20026;-69
2022/06/18 08:08:54;;;;;;;2.60;0.82;;;43.00;14.80;;;;;;5024692;28;20133;-71
2022/06/18 08:11:20;;;;;;;1.70;0.70;;;42.60;15.20;;;;;;5025367;28;20039;-71
2022/06/18 08:13:49;;;;;;;3.03;0.70;;;42.80;15.60;;;;;;5034824;28;20475;-68
2022/06/18 08:16:16;;;;;;;2.58;0.55;;;42.30;15.60;;;;;;5051246;28;20036;-71
2022/06/18 08:18:42;;;;;;;2.33;1.00;;;42.20;15.80;;;;;;5038025;28;20033;-71
2022/06/18 08:21:11;;;;;;;1.25;0.90;;;42.40;15.20;;;;;;5046340;28;20078;-71
2022/06/18 08:23:38;;;;;;;1.92;0.68;;;42.40;15.60;;;;;;5028877;28;20032;-72
2022/06/18 08:26:08;;;;;;;1.05;0.57;;;42.90;15.20;;;;;;5038670;28;20116;-71
2022/06/18 08:28:36;;;;;;;1.85;0.80;;;42.50;15.40;;;;;;5050158;28;20411;-72
2022/06/18 08:31:03;;;;;;;2.85;1.17;;;42.10;15.60;;;;;;5041797;28;20112;-72
2022/06/18 08:33:29;;;;;;;1.67;0.63;;;42.10;15.90;;;;;;5043342;28;20521;-70
2022/06/18 08:35:57;;;;;;;1.67;0.73;;;41.90;16.00;;;;;;5048932;28;20033;-71
2022/06/18 08:38:23;;;;;;;2.67;0.85;;;41.70;16.10;;;;;;5036964;28;20136;-71
2022/06/18 08:41:10;;;;;;;5.22;1.23;;;42.10;16.20;;;;;;5030901;28;20029;-69
2022/06/18 08:43:54;;;;;;;2.47;0.60;;;42.40;15.90;;;;;;5046194;28;20482;-71
2022/06/18 08:46:32;;;;;;;5.60;1.35;;;42.60;16.30;;;;;;5019932;28;20029;-70
2022/06/18 08:49:37;;;;;;;1.90;0.80;;;42.90;16.20;;;;;;5046688;28;20482;-72
2022/06/18 08:52:31;;;;;;;0.98;0.85;;;43.00;15.90;;;;;;5050128;28;20032;-71
2022/06/18 08:55:09;;;;;;;2.38;1.00;;;42.80;15.90;;;;;;5027502;28;20108;-71
2022/06/18 08:57:40;;;;;;;5.32;0.93;;;43.10;15.80;;;;;;5041801;28;20040;-71
2022/06/18 09:00:38;;;;;;;2.40;0.73;;;43.20;15.60;;;;;;5050185;28;20490;-72
2022/06/18 09:03:19;;;;;;;2.22;0.57;;;43.60;15.50;;;;;;5029094;28;20193;-72
2022/06/18 09:05:51;;;;;;;1.75;0.70;;;43.10;15.50;;;;;;5040882;28;20025;-71
2022/06/18 09:08:31;;;;;;;2.50;1.25;;;42.80;15.80;;;;;;5050093;28;20021;-71
2022/06/18 09:11:09;;;;;;;7.97;0.93;;;42.20;16.00;;;;;;5024473;28;20036;-72
2022/06/18 09:13:57;;;;;;;1.27;0.70;;;41.60;16.80;;;;;;5045713;28;20025;-71
2022/06/18 09:16:35;;;;;;;2.67;0.73;;;41.40;16.90;;;;;;5037518;28;20116;-71
2022/06/18 09:19:07;;;;;;;5.85;0.93;;;41.70;17.00;;;;;;5027951;28;20021;-71
2022/06/18 09:21:55;;;;;;;2.17;0.80;;;41.40;16.90;;;;;;5042108;28;20037;-71
2022/06/18 09:24:27;;;;;;;4.47;0.73;;;41.40;17.30;;;;;;5033833;28;20506;-72
2022/06/18 09:26:59;;;;;;;8.48;0.88;;;41.40;17.10;;;;;;5044712;28;20025;-71
2022/06/18 09:29:38;;;;;;;2.00;0.90;;;41.30;16.90;;;;;;5040496;28;20021;-71
2022/06/18 09:32:17;;;;;;;8.52;1.05;;;40.50;17.60;;;;;;5034780;28;20036;-71
2022/06/18 09:34:42;;;;;;;1.45;0.82;;;40.40;18.00;;;;;;5019827;28;20021;-71
2022/06/18 09:37:17;;;;;;;1.55;0.95;;;40.30;17.80;;;;;;5041571;28;20078;-71
2022/06/18 09:39:50;;;;;;;1.58;0.82;;;39.90;18.10;;;;;;5043817;28;20104;-71
2022/06/18 09:42:32;;;;;;;3.22;0.85;;;39.80;18.40;;;;;;5033684;28;20045;-70
2022/06/18 09:45:04;;;;;;;2.55;1.15;;;39.80;18.40;;;;;;5043290;28;20022;-72
2022/06/18 09:47:41;;;;;;;2.97;0.93;;;39.90;18.40;;;;;;5022811;28;20070;-72
2022/06/18 09:50:35;;;;;;;0.70;0.60;;;39.60;18.10;;;;;;5033975;28;20037;-71
2022/06/18 09:53:11;;;;;;;2.55;0.98;;;39.40;18.40;;;;;;5024397;28;20064;-70
2022/06/18 09:55:54;;;;;;;0.98;0.70;;;39.40;18.50;;;;;;5038221;28;20032;-72
2022/06/18 09:58:24;;;;;;;4.60;0.95;;;39.50;18.30;;;;;;5047220;28;20033;-72
2022/06/18 10:00:55;;;;;;;3.95;1.10;;;39.40;18.50;;;;;;5025944;28;20535;-71
2022/06/18 10:09:06;;;;;;;4.65;1.00;;;38.20;19.00;;;;;;5041501;28;20505;-72
2022/06/18 10:11:32;;;;;;;3.78;1.05;;;38.10;19.70;;;;;;5032464;28;20402;-72
2022/06/18 10:14:19;;;;;;;3.65;0.95;;;37.80;19.80;;;;;;5035179;28;20021;-72
2022/06/18 10:16:57;;;;;;;1.25;0.98;;;37.70;20.70;;;;;;5002341;28;20077;-72
2022/06/18 10:19:44;;;;;;;2.47;0.88;;;37.50;20.20;;;;;;5039024;28;20029;-71
2022/06/18 10:22:32;;;;;;;4.10;0.90;;;37.40;21.10;;;;;;5046259;28;20025;-72
2022/06/18 10:25:21;;;;;;;3.38;1.25;;;37.10;20.90;;;;;;5036312;28;20116;-72
2022/06/18 10:27:50;;;;;;;9.30;1.30;;;37.00;20.80;;;;;;5035468;28;20049;-71
2022/06/18 10:30:30;;;;;;;2.60;1.05;;;36.90;20.50;;;;;;5045814;28;20603;-72
2022/06/18 10:33:08;;;;;;;1.97;1.07;;;36.70;21.40;;;;;;5018292;28;20028;-71
2022/06/18 10:35:45;;;;;;;2.78;0.95;;;36.40;21.70;;;;;;5038359;28;20032;-71
2022/06/18 10:38:23;;;;;;;6.40;1.23;;;36.10;22.10;;;;;;5027416;28;20116;-71
2022/06/18 10:41:01;;;;;;;2.33;1.15;;;35.80;22.50;;;;;;5034981;28;20013;-70
2022/06/18 10:43:49;;;;;;;1.88;1.20;;;35.40;23.20;;;;;;5038840;28;20368;-72
2022/06/18 10:46:21;;;;;;;4.45;1.27;;;35.30;23.60;;;;;;5045827;28;20021;-70
2022/06/18 10:48:59;;;;;;;6.07;1.42;;;35.20;23.30;;;;;;5033626;28;20040;-70
2022/06/18 10:51:33;;;;;;;2.55;1.00;;;34.80;23.10;;;;;;5063396;22;20102;-68
2022/06/18 10:54:03;;;;;;;2.28;1.15;;;34.80;23.40;;;;;;5034263;28;20491;-71
2022/06/18 10:56:32;;;;;;;2.28;1.02;;;34.70;23.00;;;;;;5045856;28;20177;-71
2022/06/18 10:59:02;;;;;;;2.80;1.10;;;34.80;23.40;;;;;;5034758;28;20027;-70
2022/06/18 11:01:36;;;;;;;6.70;1.50;;;34.80;23.00;;;;;;5038357;28;20038;-71
2022/06/18 11:04:24;;;;;;;7.10;1.55;;;34.50;22.80;;;;;;5044447;28;20056;-71
2022/06/18 11:07:01;;;;;;;3.70;1.42;;;34.40;22.90;;;;;;5020005;28;20033;-71
2022/06/18 11:09:50;;;;;;;5.13;1.40;;;34.40;23.80;;;;;;5034446;28;20022;-72
2022/06/18 11:12:27;;;;;;;7.40;2.35;;;34.40;23.60;;;;;;5043063;28;20017;-70
2022/06/18 11:14:53;;;;;;;6.60;2.00;;;34.40;23.70;;;;;;5034885;28;20047;-71
2022/06/18 11:17:26;;;;;;;7.05;2.08;;;34.40;23.00;;;;;;5038724;28;20021;-71
2022/06/18 11:19:52;;;;;;;14.10;1.90;;;34.40;23.40;;;;;;5042776;28;20033;-72
2022/06/18 11:22:25;;;;;;;6.47;1.65;;;34.20;23.30;;;;;;5032348;28;20028;-71
2022/06/18 11:24:56;;;;;;;6.75;1.80;;;34.20;23.40;;;;;;5043191;28;20447;-71
2022/06/18 11:27:23;;;;;;;4.57;1.70;;;34.10;23.80;;;;;;5038261;28;20025;-72
2022/06/18 11:29:52;;;;;;;9.00;2.85;;;34.00;23.70;;;;;;5017486;28;20029;-72
2022/06/18 11:32:55;;;;;;;8.38;2.05;;;34.10;23.90;;;;;;5045371;28;20104;-72
2022/06/18 11:35:32;;;;;;;8.45;1.85;;;34.10;23.70;;;;;;5038809;28;20036;-71
2022/06/18 11:38:04;;;;;;;8.73;2.05;;;34.20;24.20;;;;;;5033267;28;20022;-72
2022/06/18 11:40:31;;;;;;;4.78;1.40;;;34.20;24.80;;;;;;5045183;28;20025;-72
2022/06/18 11:43:04;;;;;;;10.18;2.70;;;34.20;24.00;;;;;;5034991;28;20025;-72
2022/06/18 11:45:44;;;;;;;6.15;2.10;;;34.30;24.30;;;;;;5036946;28;20104;-71
2022/06/18 11:48:30;;;;;;;3.00;1.98;;;34.40;24.20;;;;;;5044390;28;20409;-72
2022/06/18 11:51:27;;;;;;;5.78;1.52;;;34.40;25.10;;;;;;5034606;28;20173;-70
2022/06/18 11:54:06;;;;;;;8.45;2.08;;;34.50;24.60;;;;;;5033719;28;20034;-71
2022/06/18 11:56:47;;;;;;;11.85;2.60;;;34.30;24.80;;;;;;5044759;28;20360;-71
2022/06/18 11:59:41;;;;;;;8.13;1.90;;;34.30;24.80;;;;;;5036046;28;20029;-71
2022/06/18 12:02:45;;;;;;;5.68;1.88;;;34.40;24.40;;;;;;5032041;28;20025;-71
2022/06/18 12:05:32;;;;;;;8.05;2.40;;;34.40;24.40;;;;;;5025232;28;20022;-71
2022/06/18 12:08:00;;;;;;;12.20;2.08;;;34.40;24.40;;;;;;5032511;28;20021;-70
2022/06/18 12:10:47;;;;;;;8.55;2.42;;;34.40;24.50;;;;;;5036983;28;20025;-71
2022/06/18 12:13:20;;;;;;;8.05;2.00;;;34.40;24.10;;;;;;5039244;28;20068;-71
2022/06/18 12:15:48;;;;;;;5.15;1.65;;;34.40;24.40;;;;;;5041697;28;20108;-72
2022/06/18 12:18:30;;;;;;;4.32;1.88;;;34.40;24.40;;;;;;5030811;28;20483;-72
2022/06/18 12:21:22;;;;;;;7.05;2.22;;;34.40;23.60;;;;;;5041624;28;20025;-72
2022/06/18 12:24:09;;;;;;;7.40;2.05;;;34.30;24.10;;;;;;5024151;28;20032;-73
2022/06/18 12:26:51;;;;;;;6.85;2.42;;;34.30;24.30;;;;;;5031764;28;20021;-71
2022/06/18 12:29:20;;;;;;;5.18;2.25;;;34.40;24.20;;;;;;5038055;28;20133;-71
2022/06/18 12:32:20;;;;;;;11.55;2.53;;;34.40;23.70;;;;;;5041283;28;20317;-71
2022/06/18 12:35:28;;;;;;;8.55;2.40;;;34.50;23.30;;;;;;5039627;28;20457;-72
2022/06/18 12:38:25;;;;;;;13.90;2.30;;;34.50;23.60;;;;;;5032642;28;20022;-71
2022/06/18 12:41:09;;;;;;;7.80;2.17;;;34.60;23.90;;;;;;5030284;28;20029;-72
2022/06/18 12:43:35;;;;;;;11.55;2.45;;;34.50;24.30;;;;;;5036087;28;20074;-72
2022/06/18 12:46:10;;;;;;;7.43;2.60;;;34.60;23.60;;;;;;5042908;28;20029;-72
2022/06/18 12:48:57;;;;;;;9.50;2.42;;;34.60;23.50;;;;;;5014294;28;20009;-72
2022/06/18 12:52:02;;;;;;;10.65;2.47;;;34.60;24.20;;;;;;5037450;28;20025;-72
2022/06/18 12:54:42;;;;;;;6.43;2.13;;;34.70;23.10;;;;;;5026265;28;20550;-70
2022/06/18 12:57:52;;;;;;;13.45;3.42;;;34.50;23.70;;;;;;5037166;28;20117;-71
2022/06/18 13:00:26;;;;;;;16.77;2.72;;;34.50;23.80;;;;;;5035523;28;20083;-70
2022/06/18 13:03:07;;;;;;;9.95;3.15;;;34.50;23.40;;;;;;5046212;28;20033;-71
2022/06/18 13:05:50;;;;;;;14.18;2.55;;;34.50;23.70;;;;;;5042538;28;20396;-70
2022/06/18 13:08:41;;;;;;;14.23;5.00;;;34.50;23.30;;;;;;5033722;28;20137;-71
2022/06/18 13:11:10;;;;;;;11.43;3.00;;;34.50;23.50;;;;;;5040878;28;20090;-68
2022/06/18 13:13:41;;;;;;;16.38;3.22;;;34.50;23.40;;;;;;5039116;28;20079;-66
2022/06/18 13:16:14;;;;;;;56.10;43.80;;;34.40;24.40;;;;;;5046871;28;20031;-66
2022/06/18 13:18:46;;;;;;;78.47;54.90;;;34.00;26.00;;;;;;5018656;28;20029;-67
2022/06/18 13:21:11;;;;;;;83.60;51.60;;;33.70;25.30;;;;;;5041948;28;20129;-68
2022/06/18 13:29:56;;;;;;;65.35;40.00;;;33.40;26.80;;;;;;5039872;28;20094;-68
2022/06/18 13:32:29;;;;;;;30.27;16.38;;;33.20;26.60;;;;;;5047503;28;20021;-68
2022/06/18 13:35:11;;;;;;;19.17;9.73;;;33.10;26.30;;;;;;5036828;28;20017;-69
2022/06/18 13:37:44;;;;;;;13.52;5.88;;;33.00;26.60;;;;;;5038233;28;20488;-69
2022/06/18 13:40:26;;;;;;;19.60;5.20;;;33.00;26.90;;;;;;5050399;27;20017;-68
2022/06/18 13:43:12;;;;;;;18.65;5.22;;;33.00;26.50;;;;;;5034782;28;20433;-68
2022/06/18 13:46:01;;;;;;;17.08;7.30;;;33.20;26.80;;;;;;5036949;28;20060;-68
2022/06/18 13:48:26;;;;;;;14.32;4.63;;;33.30;26.70;;;;;;5058346;27;20007;-69